• Join FlightAware (Why Join?)
  • Login
  • US Flag 
08:27PM EDT


 

Airport Tracker/Info


-or-


 

Live Flight TrackerFlight Track Log ✈ SKW5631 ✈ 28-Apr-2013 ✈ KDEN - KCOD

Flight Track Log - Related Links

Times and Time Zones

All times are in EDT time to prevent confusion due to time zone crossing. See the SKW5631 flight status page for this flight to view local times or setup timezone preferences in your user account.

Time Position Orientation Groundspeed Altitude Reporting Facility
EDT Latitude Longitude Course Direction KTS MPH feet Rate Location/Type
10:00PM 39.9500 -104.6833 14° North 212 244 7,500  Level Denver TRACON
10:01PM 40.0000 -104.6667 14° North 237 273 10,100 2,340 Climbing Denver TRACON
10:02PM 40.0472 -104.6594 North 245 282 11,400 2,400 Climbing Denver Center
10:03PM 40.1236 -104.6750 351° North 259 298 14,100 2,220 Climbing Denver Center
10:04PM 40.2017 -104.6956 349° North 291 335 16,100 1,740 Climbing Denver Center
10:05PM 40.2903 -104.7192 349° North 303 349 17,800 960 Climbing Denver Center
10:06PM 40.3906 -104.7458 349° North 369 425 18,200 720 Climbing Denver Center
10:07PM 40.5069 -104.7761 349° North 405 466 19,300 1,080 Climbing Denver Center
10:08PM 40.6061 -104.8303 337° Northwest 388 447 20,500 1,140 Climbing Denver Center
10:09PM 40.6939 -104.9186 323° Northwest 398 458 21,700 1,140 Climbing Denver Center
10:10PM 40.7819 -104.9994 325° Northwest 378 435 22,900 1,080 Climbing Denver Center
10:11PM 40.8714 -105.0831 325° Northwest 388 447 24,000 960 Climbing Denver Center
10:12PM 40.9617 -105.1700 324° Northwest 398 458 24,900 840 Climbing Denver Center
10:13PM 41.0644 -105.2683 324° Northwest 394 453 25,800 720 Climbing Denver Center
10:14PM 41.1525 -105.3553 323° Northwest 404 465 26,500 720 Climbing Denver Center
10:15PM 41.2403 -105.4392 324° Northwest 405 466 27,300 780 Climbing Denver Center
10:16PM 41.3414 -105.5381 324° Northwest 403 464 28,200 780 Climbing Denver Center
10:17PM 41.4292 -105.6231 324° Northwest 406 467 28,900 720 Climbing Denver Center
10:18PM 41.5294 -105.7228 323° Northwest 404 465 29,800 720 Climbing Denver Center
10:19PM 41.6156 -105.8075 324° Northwest 401 461 30,400 600 Climbing Denver Center
10:20PM 41.7197 -105.9100 324° Northwest 411 473 31,100 600 Climbing Denver Center
10:21PM 41.8081 -105.9975 324° Northwest 412 474 31,700 420 Climbing Denver Center
10:22PM 41.8933 -106.0819 324° Northwest 403 464 32,000 120 Climbing Denver Center
10:23PM 41.9978 -106.1858 324° Northwest 415 478 32,000  Level Denver Center
10:24PM 42.0875 -106.2764 323° Northwest 420 483 32,000  Level Denver Center
10:25PM 42.1911 -106.3825 323° Northwest 420 483 32,000  Level Denver Center
10:26PM 42.2817 -106.4736 323° Northwest 423 487 32,000  Level Denver Center
10:27PM 42.3728 -106.5656 323° Northwest 425 489 32,000  Level Denver Center
10:28PM 42.4786 -106.6736 323° Northwest 426 490 32,000  Level Denver Center
10:29PM 42.5700 -106.7667 323° Northwest 427 491 32,000  Level Denver Center
10:30PM 42.6750 -106.8756 323° Northwest 426 490 32,000  Level Denver Center
10:32PM 42.7653 -106.9692 323° Northwest 426 490 32,000  Level Denver Center
10:33PM 42.8769 -107.0692 327° Northwest 428 493 32,000  Level Denver Center
10:34PM 42.9717 -107.1569 326° Northwest 429 494 32,000  Level Denver Center
10:35PM 43.0692 -107.2461 326° Northwest 428 493 32,000  Level Denver Center
10:36PM 43.1797 -107.3494 326° Northwest 431 496 32,000  Level Denver Center
10:36PM 43.2267 -107.3947 325° Northwest 431 496 32,000  Level Salt Lake Center
10:37PM 43.3369 -107.4975 326° Northwest 431 496 32,000  Level Salt Lake Center
10:38PM 43.4328 -107.5867 326° Northwest 433 498 32,000  Level Salt Lake Center
10:39PM 43.5289 -107.6767 326° Northwest 437 503 32,000  Level Salt Lake Center
10:40PM 43.6411 -107.7817 326° Northwest 435 501 32,000 -300 Level Salt Lake Center
10:41PM 43.7378 -107.8739 325° Northwest 439 505 31,500 -1,740 Descending Salt Lake Center
10:42PM 43.8339 -107.9642 326° Northwest 436 502 28,500 -3,180 Descending Salt Lake Center
10:43PM 43.9417 -108.0672 325° Northwest 422 486 25,100 -3,120 Descending Salt Lake Center
10:44PM 44.0344 -108.1525 327° Northwest 417 480 22,200 -3,060 Descending Salt Lake Center
10:45PM 44.1408 -108.2550 325° Northwest 415 478 18,900 -3,120 Descending Salt Lake Center
10:46PM 44.2294 -108.3386 326° Northwest 410 472 15,900 -2,640 Descending Salt Lake Center
10:47PM 44.3081 -108.4128 326° Northwest 384 442 13,500 -2,400 Descending Salt Lake Center
10:48PM 44.3892 -108.4903 326° Northwest 336 387 11,100 -1,680 Descending Salt Lake Center
10:49PM 44.4561 -108.5558 325° Northwest 318 366 10,100 -840 Descending Salt Lake Center
10:51PM 44.5222 -108.6178 326° Northwest 307 353 9,400 -540 Descending Salt Lake Center
10:52PM 44.5939 -108.6881 325° Northwest 293 337 9,100 -720 Descending Salt Lake Center
10:53PM 44.6469 -108.7503 320° Northwest 277 319 8,000 -600 Descending Salt Lake Center
10:54PM 44.6231 -108.8419 250° West 243 280 8,000 -300 Level Salt Lake Center
10:55PM 44.5886 -108.9050 233° Southwest 225 259 7,400 -840 Descending Salt Lake Center
10:56PM 44.5597 -108.9567 232° Southwest 199 229 6,300 -780 Descending Salt Lake Center
10:57PM 44.5278 -109.0117 231° Southwest 189 217 5,900 -420 Descending Salt Lake Center
10:59PM 44.5167 -109.0167 245° Southwest  Level FlightAware Approximate